Time;durP1;ratioP1;P1;durP2;ratioP2;P2;SDS_P1;SDS_P2;PMS_P1;PMS_P2;Temp;Humidity;BMP_temperature;BMP_pressure;BME280_temperature;BME280_humidity;BME280_pressure;Samples;Min_cycle;Max_cycle;Signal;HPM_P1;HPM_P2
2022/01/01 00:01:28;;;;;;;239.17;121.23;;;;;;;;;;5053588;28;21007;-65
2022/01/01 00:03:56;;;;;;;331.47;180.37;;;;;;;;;;5053754;28;20459;-64
2022/01/01 00:06:23;;;;;;;378.13;206.80;;;;;;;;;;5053627;28;20845;-65
2022/01/01 00:08:50;;;;;;;412.27;231.70;;;;;;;;;;5053486;28;20531;-65
2022/01/01 00:11:17;;;;;;;425.83;223.57;;;;;;;;;;5053508;28;20484;-64
2022/01/01 00:13:44;;;;;;;403.53;211.63;;;;;;;;;;5053498;28;20536;-67
2022/01/01 00:16:12;;;;;;;348.93;185.80;;;;;;;;;;5053402;28;20449;-65
2022/01/01 00:18:40;;;;;;;324.30;166.47;;;;;;;;;;5053142;28;20543;-67
2022/01/01 00:21:08;;;;;;;337.47;171.67;;;;;;;;;;5053345;28;20543;-65
2022/01/01 00:23:35;;;;;;;333.87;168.43;;;;;;;;;;5053308;28;20536;-68
2022/01/01 00:26:02;;;;;;;305.60;155.30;;;;;;;;;;5053379;28;20449;-65
2022/01/01 00:28:29;;;;;;;304.13;153.33;;;;;;;;;;5053022;28;20873;-66
2022/01/01 00:30:56;;;;;;;303.13;150.77;;;;;;;;;;5053288;28;20514;-65
2022/01/01 00:33:25;;;;;;;302.03;148.20;;;;;;;;;;5053257;28;20445;-65
2022/01/01 00:35:53;;;;;;;265.90;130.40;;;;;;;;;;5053171;28;20452;-64
2022/01/01 00:38:20;;;;;;;279.10;136.67;;;;;;;;;;5052834;28;20451;-65
2022/01/01 00:40:47;;;;;;;244.73;116.90;;;;;;;;;;5052789;28;20461;-66
2022/01/01 00:43:14;;;;;;;222.63;102.90;;;;;;;;;;5053060;28;20444;-65
2022/01/01 00:45:42;;;;;;;127.83;49.30;;;;;;;;;;5052995;28;20448;-66
2022/01/01 00:48:09;;;;;;;195.03;89.10;;;;;;;;;;5052750;28;20623;-64
2022/01/01 00:50:36;;;;;;;159.67;67.67;;;;;;;;;;5052565;28;20571;-65
2022/01/01 00:53:04;;;;;;;172.80;68.43;;;;;;;;;;5052614;28;20451;-64
2022/01/01 00:55:31;;;;;;;138.20;49.40;;;;;;;;;;5052647;28;20449;-64
2022/01/01 00:57:59;;;;;;;123.13;42.50;;;;;;;;;;5052541;28;20538;-65
2022/01/01 01:00:26;;;;;;;109.30;39.50;;;;;;;;;;5052555;28;20483;-67
2022/01/01 01:02:53;;;;;;;117.00;41.77;;;;;;;;;;5052639;28;20475;-65
2022/01/01 01:05:20;;;;;;;124.43;41.70;;;;;;;;;;5052388;28;20456;-66
2022/01/01 01:07:47;;;;;;;121.90;42.73;;;;;;;;;;5052657;28;20435;-65
2022/01/01 01:10:16;;;;;;;118.57;40.47;;;;;;;;;;5052221;28;21075;-65
2022/01/01 01:12:45;;;;;;;121.33;44.93;;;;;;;;;;5052569;28;20536;-65
2022/01/01 01:15:17;;;;;;;122.00;42.70;;;;;;;;;;5052533;28;20444;-62
2022/01/01 01:17:45;;;;;;;119.97;43.57;;;;;;;;;;5052038;28;20449;-62
2022/01/01 01:20:12;;;;;;;122.00;45.00;;;;;;;;;;5052197;28;20448;-62
2022/01/01 01:22:40;;;;;;;119.13;42.70;;;;;;;;;;5052130;28;20460;-62
2022/01/01 01:25:07;;;;;;;121.10;44.27;;;;;;;;;;5052266;28;20531;-63
2022/01/01 01:27:36;;;;;;;124.70;46.20;;;;;;;;;;5052033;28;20452;-65
2022/01/01 01:30:04;;;;;;;121.53;45.27;;;;;;;;;;5051941;28;20893;-62
2022/01/01 01:32:31;;;;;;;135.80;45.70;;;;;;;;;;5052123;28;20552;-62
2022/01/01 01:34:59;;;;;;;122.90;44.97;;;;;;;;;;5051890;28;20455;-65
2022/01/01 01:37:27;;;;;;;131.30;46.93;;;;;;;;;;5051534;28;20548;-62
2022/01/01 01:39:55;;;;;;;127.47;46.33;;;;;;;;;;5052186;28;20531;-65
2022/01/01 01:42:22;;;;;;;118.83;42.20;;;;;;;;;;5052029;28;20468;-62
2022/01/01 01:44:53;;;;;;;121.40;41.93;;;;;;;;;;5051999;28;20449;-63
2022/01/01 01:47:28;;;;;;;125.67;45.17;;;;;;;;;;5051677;28;20453;-63
2022/01/01 01:49:55;;;;;;;123.90;46.27;;;;;;;;;;5052009;28;20455;-64
2022/01/01 01:52:23;;;;;;;123.83;44.77;;;;;;;;;;5051865;28;20475;-62
2022/01/01 01:54:50;;;;;;;121.50;43.53;;;;;;;;;;5051776;28;20551;-63
2022/01/01 01:57:17;;;;;;;127.20;44.03;;;;;;;;;;5051544;28;20444;-64
2022/01/01 01:59:45;;;;;;;123.83;46.60;;;;;;;;;;5051699;28;20544;-62
2022/01/01 02:02:13;;;;;;;127.17;47.80;;;;;;;;;;5051467;28;20471;-63
2022/01/01 02:04:40;;;;;;;134.13;52.43;;;;;;;;;;5051687;28;20451;-62
2022/01/01 02:07:08;;;;;;;138.10;55.27;;;;;;;;;;5051529;28;20552;-67
2022/01/01 02:09:35;;;;;;;129.63;46.70;;;;;;;;;;5051802;28;20494;-62
2022/01/01 02:12:03;;;;;;;127.50;45.90;;;;;;;;;;5051866;28;20484;-63
2022/01/01 02:14:47;;;;;;;122.40;45.70;;;;;;;;;;5050639;28;20453;-62
2022/01/01 02:17:17;;;;;;;120.27;41.90;;;;;;;;;;5051752;28;20454;-63
2022/01/01 02:19:49;;;;;;;118.73;43.90;;;;;;;;;;5051883;28;20449;-64
2022/01/01 02:22:18;;;;;;;126.33;47.40;;;;;;;;;;5051628;28;20564;-63
2022/01/01 02:24:45;;;;;;;125.57;48.00;;;;;;;;;;5051977;28;20472;-62
2022/01/01 02:27:12;;;;;;;124.90;43.77;;;;;;;;;;5052147;28;20444;-63
2022/01/01 02:29:39;;;;;;;117.77;42.77;;;;;;;;;;5052368;28;20452;-64
2022/01/01 02:32:10;;;;;;;128.07;47.00;;;;;;;;;;5052941;28;20491;-65
2022/01/01 02:34:37;;;;;;;129.90;48.23;;;;;;;;;;5057869;28;20527;-64
2022/01/01 02:37:05;;;;;;;115.63;41.37;;;;;;;;;;5057929;28;20488;-70
2022/01/01 02:39:33;;;;;;;128.30;43.50;;;;;;;;;;5057505;28;20448;-64
2022/01/01 02:42:01;;;;;;;123.10;43.50;;;;;;;;;;5058228;28;20556;-65
2022/01/01 02:44:28;;;;;;;130.13;47.23;;;;;;;;;;5061109;28;20775;-64
2022/01/01 02:46:56;;;;;;;137.67;52.93;;;;;;;;;;5058743;28;20510;-64
2022/01/01 02:49:23;;;;;;;144.57;54.07;;;;;;;;;;5053712;28;20452;-65
2022/01/01 02:51:50;;;;;;;135.70;52.40;;;;;;;;;;5055212;28;20859;-64
2022/01/01 02:54:17;;;;;;;138.37;53.77;;;;;;;;;;5055561;28;20444;-64
2022/01/01 02:56:46;;;;;;;135.27;51.27;;;;;;;;;;5055415;28;20598;-64
2022/01/01 02:59:13;;;;;;;131.10;49.87;;;;;;;;;;5054947;28;20535;-64
2022/01/01 03:01:40;;;;;;;136.00;51.10;;;;;;;;;;5055102;28;20552;-62
2022/01/01 03:04:07;;;;;;;136.30;51.87;;;;;;;;;;5054946;28;20822;-63
2022/01/01 03:06:35;;;;;;;143.23;53.80;;;;;;;;;;5054946;28;20826;-62
2022/01/01 03:09:02;;;;;;;145.33;55.27;;;;;;;;;;5054864;28;20881;-63
2022/01/01 03:11:29;;;;;;;132.60;52.47;;;;;;;;;;5054963;28;20484;-62
2022/01/01 03:13:57;;;;;;;136.30;52.83;;;;;;;;;;5054734;28;20450;-62
2022/01/01 03:16:24;;;;;;;136.00;53.67;;;;;;;;;;5054878;28;20818;-62
2022/01/01 03:18:53;;;;;;;143.97;55.87;;;;;;;;;;5054493;28;20448;-62
2022/01/01 03:21:20;;;;;;;147.33;54.50;;;;;;;;;;5054543;28;20468;-64
2022/01/01 03:23:47;;;;;;;137.43;52.80;;;;;;;;;;5054760;28;20844;-64
2022/01/01 03:26:14;;;;;;;138.17;51.57;;;;;;;;;;5054729;28;20534;-65
2022/01/01 03:28:41;;;;;;;137.60;53.30;;;;;;;;;;5054211;28;20544;-64
2022/01/01 03:31:10;;;;;;;136.67;52.97;;;;;;;;;;5054456;28;20488;-64
2022/01/01 03:33:37;;;;;;;136.57;51.73;;;;;;;;;;5054374;28;20449;-65
2022/01/01 03:36:05;;;;;;;144.87;54.37;;;;;;;;;;5054355;28;20456;-65
2022/01/01 03:38:32;;;;;;;131.13;52.77;;;;;;;;;;5054286;28;20449;-66
2022/01/01 03:40:59;;;;;;;139.13;52.43;;;;;;;;;;5054488;28;20953;-64
2022/01/01 03:43:26;;;;;;;139.17;53.10;;;;;;;;;;5054289;28;20445;-65
2022/01/01 03:45:53;;;;;;;128.97;49.90;;;;;;;;;;5054112;28;20539;-65
2022/01/01 03:48:22;;;;;;;137.30;51.73;;;;;;;;;;5053732;28;20459;-65
2022/01/01 03:50:49;;;;;;;144.93;51.90;;;;;;;;;;5054168;28;20555;-65
2022/01/01 03:53:16;;;;;;;142.30;54.07;;;;;;;;;;5054235;28;20540;-67
2022/01/01 03:55:44;;;;;;;140.73;54.03;;;;;;;;;;5054119;28;20448;-64
2022/01/01 03:58:11;;;;;;;129.00;50.20;;;;;;;;;;5053713;28;20444;-65
2022/01/01 04:00:39;;;;;;;132.97;51.50;;;;;;;;;;5053477;28;20468;-65
2022/01/01 04:03:07;;;;;;;132.57;51.63;;;;;;;;;;5054025;28;20531;-64
2022/01/01 04:05:36;;;;;;;129.50;51.53;;;;;;;;;;5053905;28;20563;-64
2022/01/01 04:08:03;;;;;;;138.83;53.40;;;;;;;;;;5053622;28;20453;-65
2022/01/01 04:10:31;;;;;;;129.83;50.57;;;;;;;;;;5053641;28;20469;-65
2022/01/01 04:12:59;;;;;;;143.73;53.13;;;;;;;;;;5053657;28;20826;-65
2022/01/01 04:15:26;;;;;;;133.67;50.27;;;;;;;;;;5053599;28;20819;-64
2022/01/01 04:17:57;;;;;;;136.40;51.03;;;;;;;;;;5053252;28;20451;-64
2022/01/01 04:20:25;;;;;;;128.43;50.47;;;;;;;;;;5053543;28;20469;-64
2022/01/01 04:22:53;;;;;;;139.50;51.00;;;;;;;;;;5053511;28;20447;-65
2022/01/01 04:25:21;;;;;;;136.00;50.23;;;;;;;;;;5053508;28;20455;-65
2022/01/01 04:27:48;;;;;;;127.20;47.57;;;;;;;;;;5053136;28;20445;-66
2022/01/01 04:30:15;;;;;;;139.07;50.10;;;;;;;;;;5053433;28;20454;-67
2022/01/01 04:32:42;;;;;;;131.33;51.47;;;;;;;;;;5053378;28;20489;-64
2022/01/01 04:35:10;;;;;;;131.63;50.37;;;;;;;;;;5053468;28;20451;-66
2022/01/01 04:37:37;;;;;;;140.70;51.43;;;;;;;;;;5052991;28;20502;-64
2022/01/01 04:40:07;;;;;;;136.33;51.70;;;;;;;;;;5053130;28;20449;-64
2022/01/01 04:42:34;;;;;;;134.57;52.77;;;;;;;;;;5053514;28;20452;-64
2022/01/01 04:45:02;;;;;;;133.80;50.17;;;;;;;;;;5053230;28;20912;-66
2022/01/01 04:47:29;;;;;;;144.73;52.27;;;;;;;;;;5052973;28;20449;-64
2022/01/01 04:49:56;;;;;;;127.50;49.77;;;;;;;;;;5053139;28;20460;-65
2022/01/01 04:52:24;;;;;;;132.90;51.20;;;;;;;;;;5052819;28;20480;-67
2022/01/01 04:54:51;;;;;;;133.60;53.10;;;;;;;;;;5052887;28;20536;-64
2022/01/01 04:57:19;;;;;;;135.50;50.90;;;;;;;;;;5052575;28;20476;-65
2022/01/01 04:59:46;;;;;;;137.90;51.80;;;;;;;;;;5053066;28;20444;-65
2022/01/01 05:02:13;;;;;;;129.50;49.00;;;;;;;;;;5052798;28;20559;-64
2022/01/01 05:04:41;;;;;;;132.57;49.60;;;;;;;;;;5052913;28;20478;-65
2022/01/01 05:07:08;;;;;;;125.90;48.43;;;;;;;;;;5052468;28;20547;-65
2022/01/01 05:09:35;;;;;;;127.00;48.47;;;;;;;;;;5052534;28;20539;-65
2022/01/01 05:12:03;;;;;;;128.87;48.70;;;;;;;;;;5051922;28;20492;-66
2022/01/01 05:14:33;;;;;;;136.67;49.80;;;;;;;;;;5052342;28;20455;-64
2022/01/01 05:17:00;;;;;;;123.70;48.07;;;;;;;;;;5052633;28;20549;-67
2022/01/01 05:19:27;;;;;;;127.33;44.37;;;;;;;;;;5052287;28;20892;-64
2022/01/01 05:21:55;;;;;;;116.10;43.57;;;;;;;;;;5052261;28;20467;-66
2022/01/01 05:24:22;;;;;;;117.95;42.78;;;;;;;;;;5052202;28;20456;-64
2022/01/01 05:26:50;;;;;;;130.40;43.87;;;;;;;;;;5052528;28;20211;-65
2022/01/01 05:29:17;;;;;;;122.90;44.73;;;;;;;;;;5052114;28;20454;-64
2022/01/01 05:31:46;;;;;;;119.67;45.13;;;;;;;;;;5052146;28;20480;-64
2022/01/01 05:34:13;;;;;;;127.35;44.05;;;;;;;;;;5052077;28;20447;-65
2022/01/01 05:36:40;;;;;;;125.28;42.85;;;;;;;;;;5052119;28;20233;-64
2022/01/01 05:39:08;;;;;;;110.97;37.90;;;;;;;;;;5051789;28;20738;-64
2022/01/01 05:41:35;;;;;;;129.43;42.90;;;;;;;;;;5052004;28;21046;-65
2022/01/01 05:44:02;;;;;;;119.53;38.40;;;;;;;;;;5052344;28;20459;-65
2022/01/01 05:46:31;;;;;;;117.37;37.87;;;;;;;;;;5052072;28;20217;-65
2022/01/01 05:49:00;;;;;;;116.43;37.73;;;;;;;;;;5051581;28;20487;-65
2022/01/01 05:51:27;;;;;;;113.05;39.30;;;;;;;;;;5051916;28;20556;-67
2022/01/01 05:53:54;;;;;;;120.20;41.47;;;;;;;;;;5051999;28;20300;-64
2022/01/01 05:56:21;;;;;;;123.97;39.65;;;;;;;;;;5052012;28;20445;-66
2022/01/01 05:58:48;;;;;;;123.45;39.30;;;;;;;;;;5051541;28;20210;-65
2022/01/01 06:01:15;;;;;;;111.93;37.70;;;;;;;;;;5051729;28;20232;-65
2022/01/01 06:03:43;;;;;;;113.05;37.13;;;;;;;;;;5051637;28;20206;-64
2022/01/01 06:06:11;;;;;;;115.97;39.33;;;;;;;;;;5051785;28;20214;-65
2022/01/01 06:08:38;;;;;;;115.78;36.80;;;;;;;;;;5051621;28;20536;-64
2022/01/01 06:11:05;;;;;;;112.77;37.30;;;;;;;;;;5051694;28;20915;-65
2022/01/01 06:13:32;;;;;;;115.47;36.90;;;;;;;;;;5051485;28;20480;-65
2022/01/01 06:16:00;;;;;;;122.93;40.05;;;;;;;;;;5051718;28;20304;-65
2022/01/01 06:18:27;;;;;;;113.70;37.60;;;;;;;;;;5051338;28;20313;-64
2022/01/01 06:20:54;;;;;;;115.57;37.57;;;;;;;;;;5051553;28;20491;-67
2022/01/01 06:23:22;;;;;;;115.93;36.30;;;;;;;;;;5054126;28;20455;-64
2022/01/01 06:25:50;;;;;;;113.93;35.50;;;;;;;;;;5055861;28;20444;-65
2022/01/01 06:28:17;;;;;;;109.32;35.00;;;;;;;;;;5055395;28;20213;-65
2022/01/01 06:30:44;;;;;;;115.37;37.10;;;;;;;;;;5055585;28;20225;-64
2022/01/01 06:33:12;;;;;;;111.70;37.30;;;;;;;;;;5055810;28;21014;-64
2022/01/01 06:35:39;;;;;;;112.72;37.40;;;;;;;;;;5055725;28;20234;-65
2022/01/01 06:38:06;;;;;;;116.03;39.00;;;;;;;;;;5055396;28;20202;-65
2022/01/01 06:40:35;;;;;;;122.40;41.03;;;;;;;;;;5055464;28;20547;-65
2022/01/01 06:43:02;;;;;;;116.50;39.13;;;;;;;;;;5055444;28;20293;-64
2022/01/01 06:45:30;;;;;;;113.37;40.47;;;;;;;;;;5055328;28;20308;-64
2022/01/01 06:47:57;;;;;;;117.85;39.00;;;;;;;;;;5055009;28;20933;-65
2022/01/01 06:50:24;;;;;;;117.13;40.67;;;;;;;;;;5055182;28;20318;-64
2022/01/01 06:52:51;;;;;;;123.03;41.85;;;;;;;;;;5055190;28;20226;-64
2022/01/01 06:55:19;;;;;;;124.93;41.22;;;;;;;;;;5055199;28;20217;-64
2022/01/01 06:57:48;;;;;;;124.53;41.40;;;;;;;;;;5054768;28;20297;-64
2022/01/01 07:00:15;;;;;;;119.95;39.75;;;;;;;;;;5054995;28;20458;-68
2022/01/01 07:02:43;;;;;;;117.27;39.07;;;;;;;;;;5055137;28;20212;-64
2022/01/01 07:05:11;;;;;;;117.90;38.70;;;;;;;;;;5055023;28;20825;-64
2022/01/01 07:07:38;;;;;;;121.47;41.20;;;;;;;;;;5054693;28;21012;-64
2022/01/01 07:10:05;;;;;;;118.07;39.70;;;;;;;;;;5054913;28;20454;-64
2022/01/01 07:12:33;;;;;;;117.80;41.90;;;;;;;;;;5054622;28;20480;-64
2022/01/01 07:15:01;;;;;;;125.87;45.00;;;;;;;;;;5055056;28;20206;-65
2022/01/01 07:17:28;;;;;;;120.77;40.87;;;;;;;;;;5054635;28;20479;-64
2022/01/01 07:19:55;;;;;;;120.07;40.25;;;;;;;;;;5054720;28;20448;-66
2022/01/01 07:22:22;;;;;;;115.50;38.27;;;;;;;;;;5054590;28;20222;-64
2022/01/01 07:24:50;;;;;;;117.55;40.63;;;;;;;;;;5054539;28;20444;-65
2022/01/01 07:27:17;;;;;;;120.18;38.55;;;;;;;;;;5054226;28;20206;-64
2022/01/01 07:29:44;;;;;;;122.18;41.97;;;;;;;;;;5054679;28;20301;-64
2022/01/01 07:32:12;;;;;;;118.10;39.40;;;;;;;;;;5054524;28;20238;-64
2022/01/01 07:34:40;;;;;;;117.23;38.87;;;;;;;;;;5053771;28;20455;-67
2022/01/01 07:37:07;;;;;;;124.82;41.90;;;;;;;;;;5054350;28;20830;-67
2022/01/01 07:39:34;;;;;;;121.72;40.33;;;;;;;;;;5054098;28;20213;-67
2022/01/01 07:42:01;;;;;;;114.57;38.00;;;;;;;;;;5054257;28;20226;-65
2022/01/01 07:44:28;;;;;;;116.23;38.47;;;;;;;;;;5054107;28;20482;-66
2022/01/01 07:46:55;;;;;;;111.30;35.53;;;;;;;;;;5054216;28;20451;-65
2022/01/01 07:49:24;;;;;;;107.38;31.38;;;;;;;;;;5053927;28;20449;-65
2022/01/01 07:51:51;;;;;;;104.13;30.60;;;;;;;;;;5053844;28;20573;-65
2022/01/01 07:54:18;;;;;;;104.30;30.30;;;;;;;;;;5053864;28;20452;-65
2022/01/01 07:56:45;;;;;;;106.97;33.13;;;;;;;;;;5054073;28;20451;-65
2022/01/01 07:59:13;;;;;;;110.90;34.60;;;;;;;;;;5053729;28;20455;-66
2022/01/01 08:01:40;;;;;;;110.70;35.13;;;;;;;;;;5053798;28;20903;-65
2022/01/01 08:04:07;;;;;;;101.40;31.77;;;;;;;;;;5053747;28;20467;-65
2022/01/01 08:06:36;;;;;;;103.43;29.70;;;;;;;;;;5053501;28;20555;-65
2022/01/01 08:09:03;;;;;;;101.23;29.20;;;;;;;;;;5053649;28;20540;-66
2022/01/01 08:11:30;;;;;;;103.07;27.00;;;;;;;;;;5053537;28;20468;-65
2022/01/01 08:13:57;;;;;;;94.83;26.87;;;;;;;;;;5053668;28;20484;-64
2022/01/01 08:16:24;;;;;;;99.57;26.83;;;;;;;;;;5053485;28;20541;-64
2022/01/01 08:18:51;;;;;;;94.47;26.57;;;;;;;;;;5053236;28;20536;-64
2022/01/01 08:21:19;;;;;;;91.87;24.10;;;;;;;;;;5053357;28;20625;-65
2022/01/01 08:23:47;;;;;;;89.87;23.50;;;;;;;;;;5053541;28;20556;-64
2022/01/01 08:26:14;;;;;;;95.70;22.23;;;;;;;;;;5053365;28;20457;-65
2022/01/01 08:28:42;;;;;;;86.83;21.40;;;;;;;;;;5053231;28;20445;-66
2022/01/01 08:31:09;;;;;;;88.83;22.13;;;;;;;;;;5053323;28;20545;-64
2022/01/01 08:33:36;;;;;;;79.07;17.40;;;;;;;;;;5053036;28;20502;-65
2022/01/01 08:36:03;;;;;;;76.80;17.07;;;;;;;;;;5053135;28;20451;-64
2022/01/01 08:38:31;;;;;;;79.40;15.53;;;;;;;;;;5053058;28;20530;-65
2022/01/01 08:41:00;;;;;;;66.57;9.23;;;;;;;;;;5052993;28;20469;-65
2022/01/01 08:43:27;;;;;;;66.90;9.73;;;;;;;;;;5052962;28;20535;-64
2022/01/01 08:45:54;;;;;;;68.60;10.33;;;;;;;;;;5051885;28;20491;-65
2022/01/01 08:48:21;;;;;;;67.00;8.43;;;;;;;;;;5052601;28;20492;-64
2022/01/01 08:50:48;;;;;;;68.80;9.13;;;;;;;;;;5053232;28;20468;-65
2022/01/01 08:53:15;;;;;;;66.00;8.20;;;;;;;;;;5052878;28;20484;-64
2022/01/01 08:55:43;;;;;;;66.40;7.50;;;;;;;;;;5052927;28;20817;-65
2022/01/01 08:58:12;;;;;;;68.03;8.73;;;;;;;;;;5052562;28;20456;-65
2022/01/01 09:00:39;;;;;;;62.90;6.10;;;;;;;;;;5052570;28;20467;-65
2022/01/01 09:03:06;;;;;;;63.13;6.57;;;;;;;;;;5052567;28;20441;-66
2022/01/01 09:05:33;;;;;;;65.50;7.50;;;;;;;;;;5052698;28;20461;-65
2022/01/01 09:08:00;;;;;;;65.90;7.53;;;;;;;;;;5052525;28;20537;-66
2022/01/01 09:10:27;;;;;;;64.77;7.10;;;;;;;;;;5052714;28;20472;-65
2022/01/01 09:12:54;;;;;;;62.60;7.03;;;;;;;;;;5052436;28;20490;-65
2022/01/01 09:15:23;;;;;;;63.37;6.90;;;;;;;;;;5052476;28;20456;-65
2022/01/01 09:17:50;;;;;;;65.60;7.50;;;;;;;;;;5052516;28;20627;-64
2022/01/01 09:20:17;;;;;;;63.50;6.73;;;;;;;;;;5052445;28;20535;-65
2022/01/01 09:22:44;;;;;;;63.50;6.87;;;;;;;;;;5052427;28;20839;-67
2022/01/01 09:25:12;;;;;;;63.23;6.70;;;;;;;;;;5052388;28;20452;-64
2022/01/01 09:27:40;;;;;;;65.50;7.70;;;;;;;;;;5052614;28;20480;-64
2022/01/01 09:30:07;;;;;;;65.50;6.80;;;;;;;;;;5052083;28;20448;-66
2022/01/01 09:32:36;;;;;;;64.30;6.87;;;;;;;;;;5052304;28;20456;-65
2022/01/01 09:35:04;;;;;;;62.60;6.30;;;;;;;;;;5052303;28;20486;-65
2022/01/01 09:37:32;;;;;;;62.97;6.23;;;;;;;;;;5051963;28;20499;-65
2022/01/01 09:40:00;;;;;;;62.93;6.20;;;;;;;;;;5052156;28;20452;-65
2022/01/01 09:42:27;;;;;;;64.50;6.50;;;;;;;;;;5051761;28;20469;-66
2022/01/01 09:44:54;;;;;;;62.17;5.30;;;;;;;;;;5052257;28;20455;-64
2022/01/01 09:47:22;;;;;;;62.37;5.50;;;;;;;;;;5051875;28;20959;-65
2022/01/01 09:49:51;;;;;;;62.00;5.90;;;;;;;;;;5052084;28;20448;-66
2022/01/01 09:52:18;;;;;;;61.97;5.50;;;;;;;;;;5051918;28;20556;-65
2022/01/01 09:54:45;;;;;;;62.43;6.37;;;;;;;;;;5051820;28;20491;-65
2022/01/01 09:57:12;;;;;;;63.17;6.30;;;;;;;;;;5051167;28;20536;-65
2022/01/01 09:59:40;;;;;;;61.80;5.73;;;;;;;;;;5052056;28;20452;-65
2022/01/01 10:02:07;;;;;;;62.47;5.63;;;;;;;;;;5051921;28;20842;-64
2022/01/01 10:04:44;;;;;;;62.40;6.20;;;;;;;;;;5051814;28;20528;-65
2022/01/01 10:07:13;;;;;;;61.77;4.93;;;;;;;;;;5051404;28;20464;-65
2022/01/01 10:09:41;;;;;;;61.90;6.07;;;;;;;;;;5051677;28;20429;-65
2022/01/01 10:12:10;;;;;;;62.47;5.73;;;;;;;;;;5051828;28;20475;-65
2022/01/01 10:14:38;;;;;;;60.90;5.13;;;;;;;;;;5051645;28;20490;-64
2022/01/01 10:17:15;;;;;;;63.87;6.30;;;;;;;;;;5051693;28;20451;-65
2022/01/01 10:19:42;;;;;;;62.57;5.90;;;;;;;;;;5051650;28;20445;-67
2022/01/01 10:22:13;;;;;;;62.30;5.40;;;;;;;;;;5051385;28;20556;-65
2022/01/01 10:30:09;;;;;;;65.20;5.50;;;;;;;;;;5051358;28;20572;-64
2022/01/01 10:32:37;;;;;;;65.57;5.60;;;;;;;;;;5051311;28;21016;-63
2022/01/01 10:35:05;;;;;;;60.87;5.07;;;;;;;;;;5051655;28;20443;-66
2022/01/01 10:37:33;;;;;;;60.43;4.87;;;;;;;;;;5051309;28;20455;-65
2022/01/01 10:40:02;;;;;;;61.50;5.47;;;;;;;;;;5051507;28;20827;-66
2022/01/01 10:42:30;;;;;;;61.30;5.80;;;;;;;;;;5051410;28;20539;-63
2022/01/01 10:44:57;;;;;;;60.27;4.83;;;;;;;;;;5051332;28;20448;-64
2022/01/01 10:47:31;;;;;;;66.07;5.77;;;;;;;;;;5051502;28;20441;-63
2022/01/01 10:50:14;;;;;;;61.80;5.50;;;;;;;;;;5051693;28;20564;-63
2022/01/01 10:52:45;;;;;;;60.80;5.00;;;;;;;;;;5051680;28;20459;-63
2022/01/01 10:55:14;;;;;;;61.23;5.33;;;;;;;;;;5051616;28;20535;-63
2022/01/01 10:57:42;;;;;;;61.60;4.90;;;;;;;;;;5051367;28;20531;-65
2022/01/01 11:00:11;;;;;;;61.37;5.30;;;;;;;;;;5060389;28;20531;-66
2022/01/01 11:02:39;;;;;;;60.60;5.03;;;;;;;;;;5062643;28;20480;-63
2022/01/01 11:05:06;;;;;;;61.20;5.17;;;;;;;;;;5062012;28;20476;-64
2022/01/01 11:07:33;;;;;;;61.80;4.90;;;;;;;;;;5060467;28;20835;-66
2022/01/01 11:10:01;;;;;;;61.77;4.97;;;;;;;;;;5061079;28;20480;-63
2022/01/01 11:12:30;;;;;;;64.37;4.70;;;;;;;;;;5055395;28;21016;-64
2022/01/01 11:14:58;;;;;;;61.40;5.20;;;;;;;;;;5054962;28;20496;-63
2022/01/01 11:17:25;;;;;;;60.10;4.90;;;;;;;;;;5054632;28;20444;-63
2022/01/01 11:19:52;;;;;;;59.87;4.43;;;;;;;;;;5054694;28;20573;-63
2022/01/01 11:22:20;;;;;;;62.67;5.20;;;;;;;;;;5054425;28;20472;-64
2022/01/01 11:24:47;;;;;;;59.37;4.10;;;;;;;;;;5054888;28;20467;-63
2022/01/01 11:27:14;;;;;;;58.90;4.30;;;;;;;;;;5054540;28;20456;-63
2022/01/01 11:29:49;;;;;;;61.90;5.87;;;;;;;;;;5054692;28;20467;-65
2022/01/01 11:32:17;;;;;;;61.80;5.60;;;;;;;;;;5054480;28;20824;-64
2022/01/01 11:34:45;;;;;;;59.57;4.30;;;;;;;;;;5054412;28;20491;-64
2022/01/01 11:37:14;;;;;;;60.93;5.60;;;;;;;;;;5054020;28;20455;-64
2022/01/01 11:39:41;;;;;;;60.73;4.87;;;;;;;;;;5054508;28;20830;-62
2022/01/01 11:42:10;;;;;;;61.60;4.63;;;;;;;;;;5054350;28;20465;-63
2022/01/01 11:44:37;;;;;;;60.70;5.30;;;;;;;;;;5054563;28;20451;-63
2022/01/01 11:47:07;;;;;;;62.40;5.20;;;;;;;;;;5054139;28;20536;-66
2022/01/01 11:49:34;;;;;;;60.77;4.80;;;;;;;;;;5053892;28;20525;-63
2022/01/01 11:52:03;;;;;;;61.77;5.10;;;;;;;;;;5054147;28;20465;-63
2022/01/01 11:54:33;;;;;;;61.40;5.70;;;;;;;;;;5053909;28;20487;-63
2022/01/01 11:57:17;;;;;;;65.70;5.60;;;;;;;;;;5053880;28;20448;-63
2022/01/01 12:00:02;;;;;;;60.37;5.43;;;;;;;;;;5053975;28;20447;-64
2022/01/01 12:02:36;;;;;;;61.50;5.00;;;;;;;;;;5054103;28;20448;-63
2022/01/01 12:05:19;;;;;;;60.60;5.07;;;;;;;;;;5053775;28;20523;-65
2022/01/01 12:07:58;;;;;;;61.80;5.47;;;;;;;;;;5053899;28;20429;-63
2022/01/01 12:10:27;;;;;;;60.63;4.83;;;;;;;;;;5053612;28;21006;-64
2022/01/01 12:12:56;;;;;;;61.67;5.50;;;;;;;;;;5053793;28;20540;-64
2022/01/01 12:15:28;;;;;;;60.93;5.60;;;;;;;;;;5053656;28;20527;-67
2022/01/01 12:17:57;;;;;;;63.73;5.03;;;;;;;;;;5053223;28;20952;-64
2022/01/01 12:20:26;;;;;;;63.67;5.27;;;;;;;;;;5053189;28;20472;-64
2022/01/01 12:22:53;;;;;;;59.90;4.60;;;;;;;;;;5053254;28;20536;-67
2022/01/01 12:25:23;;;;;;;60.10;4.77;;;;;;;;;;5053406;28;20528;-64
2022/01/01 12:27:51;;;;;;;60.17;4.40;;;;;;;;;;5053242;28;20451;-64
2022/01/01 12:30:30;;;;;;;61.53;5.73;;;;;;;;;;5053195;28;20544;-64
2022/01/01 12:32:59;;;;;;;61.67;5.20;;;;;;;;;;5053358;28;20445;-64
2022/01/01 12:35:38;;;;;;;61.10;4.20;;;;;;;;;;5053068;28;20503;-63
2022/01/01 12:38:07;;;;;;;60.73;4.87;;;;;;;;;;5052893;28;20449;-63
2022/01/01 12:40:34;;;;;;;59.90;4.63;;;;;;;;;;5053022;28;20465;-64
2022/01/01 12:43:08;;;;;;;61.70;5.10;;;;;;;;;;5053065;28;20522;-65
2022/01/01 12:45:37;;;;;;;61.80;6.30;;;;;;;;;;5053172;28;20527;-67
2022/01/01 12:48:06;;;;;;;62.30;5.80;;;;;;;;;;5052528;28;20454;-64
2022/01/01 12:50:33;;;;;;;61.63;5.70;;;;;;;;;;5052965;28;20491;-63
2022/01/01 12:53:02;;;;;;;60.67;5.10;;;;;;;;;;5052955;28;20823;-64
2022/01/01 12:55:30;;;;;;;61.30;5.30;;;;;;;;;;5052829;28;20487;-63
2022/01/01 12:58:06;;;;;;;64.10;5.40;;;;;;;;;;5052551;28;20444;-65
2022/01/01 13:00:37;;;;;;;61.60;5.27;;;;;;;;;;5052510;28;20472;-63
2022/01/01 13:03:06;;;;;;;61.70;5.53;;;;;;;;;;5052555;28;20539;-63
2022/01/01 13:05:34;;;;;;;61.60;5.87;;;;;;;;;;5052647;28;20532;-63
2022/01/01 13:08:04;;;;;;;60.30;4.17;;;;;;;;;;5052793;28;20539;-64
2022/01/01 13:10:34;;;;;;;63.10;5.60;;;;;;;;;;5052539;28;20468;-64
2022/01/01 13:13:06;;;;;;;62.23;4.90;;;;;;;;;;5052382;28;20460;-64
2022/01/01 13:15:35;;;;;;;60.50;5.00;;;;;;;;;;5052605;28;20530;-63
2022/01/01 13:18:02;;;;;;;62.30;5.90;;;;;;;;;;5052045;28;20499;-66
2022/01/01 13:20:33;;;;;;;61.43;5.13;;;;;;;;;;5052207;28;20553;-65
2022/01/01 13:23:05;;;;;;;60.83;5.57;;;;;;;;;;5052336;28;20525;-65
2022/01/01 13:25:32;;;;;;;60.60;4.40;;;;;;;;;;5052241;28;20510;-63
2022/01/01 13:28:00;;;;;;;61.83;5.57;;;;;;;;;;5052103;28;20453;-64
2022/01/01 13:30:27;;;;;;;61.83;5.50;;;;;;;;;;5052303;28;20492;-65
2022/01/01 13:32:54;;;;;;;61.70;6.10;;;;;;;;;;5051546;28;20455;-64
2022/01/01 13:35:25;;;;;;;60.87;5.27;;;;;;;;;;5052047;28;20487;-64
2022/01/01 13:37:55;;;;;;;62.20;5.40;;;;;;;;;;5051807;28;20527;-63
2022/01/01 13:40:22;;;;;;;61.63;4.60;;;;;;;;;;5052230;28;20453;-66
2022/01/01 13:42:50;;;;;;;61.00;5.33;;;;;;;;;;5051997;28;20455;-63
2022/01/01 13:45:18;;;;;;;60.67;4.80;;;;;;;;;;5052068;28;20536;-64
2022/01/01 13:47:45;;;;;;;61.10;5.20;;;;;;;;;;5051662;28;20532;-66
2022/01/01 13:50:13;;;;;;;60.10;4.70;;;;;;;;;;5051818;28;20532;-63
2022/01/01 13:52:41;;;;;;;60.10;4.20;;;;;;;;;;5051702;28;20806;-63
2022/01/01 13:55:10;;;;;;;60.40;4.60;;;;;;;;;;5051838;28;20520;-63
2022/01/01 13:57:39;;;;;;;60.07;4.43;;;;;;;;;;5051720;28;20457;-63
2022/01/01 14:00:08;;;;;;;60.20;4.73;;;;;;;;;;5051612;28;20544;-64
2022/01/01 14:02:36;;;;;;;61.60;5.30;;;;;;;;;;5051632;28;20459;-64
2022/01/01 14:05:04;;;;;;;61.83;4.70;;;;;;;;;;5051368;28;20463;-63
2022/01/01 14:07:31;;;;;;;61.10;5.20;;;;;;;;;;5051536;28;20555;-63
2022/01/01 14:10:00;;;;;;;63.50;5.37;;;;;;;;;;5051657;28;20479;-64
2022/01/01 14:12:29;;;;;;;61.40;4.80;;;;;;;;;;5051507;28;20500;-62
2022/01/01 14:15:02;;;;;;;61.37;5.20;;;;;;;;;;5051528;28;20582;-64
2022/01/01 14:17:29;;;;;;;62.30;5.10;;;;;;;;;;5050871;28;20448;-63
2022/01/01 14:19:56;;;;;;;60.77;5.13;;;;;;;;;;5051557;28;20456;-64
2022/01/01 14:22:29;;;;;;;61.03;5.00;;;;;;;;;;5051596;28;20878;-63
2022/01/01 14:24:57;;;;;;;62.60;5.53;;;;;;;;;;5051622;28;20441;-67